Greenfield, Minnesota
Current Conditions -  °F | °C
As of 12:54 AM on Sunday 21 Dec 2014 (Local Time) from KCFE Reporting Station
Overcast Overcast  
Wind Chill: 24°   Ceiling: 900
Heat Index: 31°   Visibility: 7mi
Dew Point: 28°   Wind: 7mph
Humidity: 88%   Direction: 140°SE
Pressure: 30.03"   Gusts: NA
Location:  45.1192°N, 93.7982°W
Report Text: KCFE 210654Z AUTO 14006KT 7SM OVC009 00/M02 A3003 RMK AO2 T10051022
Loading
Personal Weather Stations






























Interactive Weather Map New forecast layout! Learn more

10-Day Weather Forecast

Advertisements
Track Severe Weather on mobile